Montoursville, Pennsylvania
Current Conditions -  °F | °C
As of 4:01 PM on Wednesday 17 Dec 2014 (Local Time) from KIPT Reporting Station
Light Rain Light Rain  
Wind Chill: 33°   Ceiling: 3700
Heat Index: 40°   Visibility: 10mi
Dew Point: 30°   Wind: 13mph
Humidity: 68%   Direction: 280°W
Pressure: 29.94"   Gusts: 22mph
Location:  41.25°N, 76.92°W
Report Text: KIPT 172101Z 28011G19KT 10SM -RA FEW028 BKN037 OVC050 04/M01 A2994 RMK AO2 RAB2059 P0000 T00441011
Loading
Personal Weather Stations






























Interactive Weather Map New forecast layout! Learn more

10-Day Weather Forecast

Advertisements
Track Severe Weather on mobile